Time;durP1;ratioP1;P1;durP2;ratioP2;P2;SDS_P1;SDS_P2;PMS_P1;PMS_P2;Temp;Humidity;BMP_temperature;BMP_pressure;BME280_temperature;BME280_humidity;BME280_pressure;Samples;Min_cycle;Max_cycle;Signal;HPM_P1;HPM_P2
2021/11/14 00:01:20;;;;;;;;;;;6.60;99.90;;;;;;5093466;28;20063;-66
2021/11/14 00:03:46;;;;;;;4.70;3.10;;;6.60;99.90;;;;;;5092339;28;20034;-66
2021/11/14 00:06:11;;;;;;;;;;;6.60;99.90;;;;;;5090456;28;20846;-65
2021/11/14 00:08:37;;;;;;;4.32;3.10;;;6.60;99.90;;;;;;5097311;28;19915;-65
2021/11/14 00:11:09;;;;;;;4.25;3.22;;;6.50;99.90;;;;;;5084951;28;20165;-66
2021/11/14 00:13:37;;;;;;;3.95;2.88;;;6.50;99.90;;;;;;5087949;28;20059;-65
2021/11/14 00:16:03;;;;;;;5.25;3.05;;;6.60;99.90;;;;;;5092111;28;20043;-66
2021/11/14 00:18:28;;;;;;;;;;;6.60;99.90;;;;;;5079314;28;20036;-66
2021/11/14 00:20:54;;;;;;;6.05;3.00;;;6.60;99.90;;;;;;5068881;28;20427;-66
2021/11/14 00:23:20;;;;;;;5.00;2.92;;;6.50;99.90;;;;;;5078466;28;20526;-65
2021/11/14 00:25:46;;;;;;;7.65;2.78;;;6.60;99.90;;;;;;5076410;28;20044;-65
2021/11/14 00:28:11;;;;;;;6.13;3.35;;;6.60;99.90;;;;;;5088565;28;20036;-65
2021/11/14 00:30:38;;;;;;;6.30;2.92;;;6.60;99.90;;;;;;5087696;28;20036;-66
2021/11/14 00:33:04;;;;;;;3.90;2.50;;;6.50;99.90;;;;;;5078472;28;20487;-65
2021/11/14 00:35:30;;;;;;;4.05;2.95;;;6.50;99.90;;;;;;5085986;28;20051;-65
2021/11/14 00:37:56;;;;;;;;;;;6.50;99.90;;;;;;5087884;28;20412;-65
2021/11/14 00:40:26;;;;;;;6.25;4.35;;;6.50;99.90;;;;;;5088604;28;19938;-65
2021/11/14 00:42:53;;;;;;;9.63;5.07;;;6.50;99.90;;;;;;5089143;28;20404;-65
2021/11/14 00:45:18;;;;;;;12.18;6.43;;;6.50;99.90;;;;;;5088271;28;20070;-65
2021/11/14 00:47:44;;;;;;;;;;;6.50;99.90;;;;;;5088384;28;20040;-65
2021/11/14 00:50:11;;;;;;;9.57;4.68;;;6.50;99.90;;;;;;5089310;28;19916;-66
2021/11/14 00:52:41;;;;;;;6.53;4.20;;;6.50;99.90;;;;;;5088863;28;20399;-66
2021/11/14 00:55:10;;;;;;;7.50;4.32;;;6.50;99.90;;;;;;5085795;28;20044;-65
2021/11/14 00:57:36;;;;;;;9.15;4.50;;;6.60;99.90;;;;;;5083152;28;20039;-65
2021/11/14 01:00:04;;;;;;;;;;;6.60;99.90;;;;;;5089463;28;20040;-65
2021/11/14 01:02:29;;;;;;;7.88;4.75;;;6.70;99.90;;;;;;5088068;28;19916;-65
2021/11/14 01:04:55;;;;;;;;;;;6.60;99.90;;;;;;5088965;28;20051;-65
2021/11/14 01:07:20;;;;;;;10.27;4.20;;;6.70;99.90;;;;;;5086780;28;19923;-66
2021/11/14 01:09:46;;;;;;;6.97;4.57;;;6.70;99.90;;;;;;5087738;28;20052;-65
2021/11/14 01:12:11;;;;;;;6.07;3.90;;;6.70;99.90;;;;;;5089202;28;20031;-65
2021/11/14 01:14:37;;;;;;;;;;;6.70;99.90;;;;;;5089987;28;20039;-65
2021/11/14 01:17:04;;;;;;;6.90;4.07;;;6.70;99.90;;;;;;5081217;28;20101;-65
2021/11/14 01:19:30;;;;;;;8.15;4.18;;;6.70;99.90;;;;;;5088265;28;20512;-65
2021/11/14 01:21:56;;;;;;;;;;;6.60;99.90;;;;;;5088291;28;20044;-66
2021/11/14 01:24:21;;;;;;;6.00;3.63;;;6.70;99.90;;;;;;5088217;28;19916;-65
2021/11/14 01:26:47;;;;;;;;;;;6.60;99.90;;;;;;5081599;28;20503;-66
2021/11/14 01:29:12;;;;;;;6.65;3.47;;;6.60;99.90;;;;;;5087598;28;19954;-65
2021/11/14 01:31:38;;;;;;;6.75;2.80;;;6.60;99.90;;;;;;5087608;28;20091;-66
2021/11/14 01:34:04;;;;;;;;;;;6.60;99.90;;;;;;5088909;28;20086;-65
2021/11/14 01:36:33;;;;;;;5.80;3.22;;;6.60;99.90;;;;;;5086482;28;20486;-66
2021/11/14 01:39:00;;;;;;;8.35;4.05;;;6.50;99.90;;;;;;5088338;28;20123;-66
2021/11/14 01:41:26;;;;;;;6.35;3.08;;;6.50;99.90;;;;;;5088688;28;20105;-65
2021/11/14 01:43:52;;;;;;;;;;;6.50;99.90;;;;;;5088918;28;20039;-65
2021/11/14 01:46:19;;;;;;;6.47;3.85;;;6.50;99.90;;;;;;5087292;28;19923;-65
2021/11/14 01:48:45;;;;;;;8.13;3.80;;;6.50;99.90;;;;;;5087739;28;20032;-65
2021/11/14 01:51:11;;;;;;;6.30;3.38;;;6.40;99.90;;;;;;5087618;28;20071;-65
2021/11/14 01:53:38;;;;;;;31.67;18.08;;;6.40;99.90;;;;;;5082579;28;20036;-65
2021/11/14 01:56:05;;;;;;;10.52;6.13;;;6.40;99.90;;;;;;5076477;28;20052;-66
2021/11/14 01:58:31;;;;;;;5.15;3.67;;;6.30;99.90;;;;;;5075982;28;20043;-66
2021/11/14 02:00:58;;;;;;;6.63;4.00;;;6.40;99.90;;;;;;5086015;28;20040;-65
2021/11/14 02:03:28;;;;;;;3.95;2.83;;;6.40;99.90;;;;;;5074522;28;20024;-66
2021/11/14 02:05:54;;;;;;;12.30;3.60;;;6.30;99.90;;;;;;5066366;28;20056;-66
2021/11/14 02:08:20;;;;;;;5.45;3.92;;;6.40;99.90;;;;;;5066064;28;20036;-65
2021/11/14 02:10:46;;;;;;;5.70;3.30;;;6.40;99.90;;;;;;5075254;28;20046;-65
2021/11/14 02:13:13;;;;;;;5.15;3.28;;;6.40;99.90;;;;;;5085613;28;20032;-66
2021/11/14 02:15:40;;;;;;;4.95;3.53;;;6.40;99.90;;;;;;5086692;28;20582;-65
2021/11/14 02:18:08;;;;;;;4.28;3.08;;;6.40;99.90;;;;;;5086689;28;20595;-66
2021/11/14 02:20:34;;;;;;;5.80;3.83;;;6.40;99.90;;;;;;5086205;28;20071;-66
2021/11/14 02:23:00;;;;;;;7.10;4.47;;;6.40;99.90;;;;;;5087102;28;20048;-66
2021/11/14 02:25:26;;;;;;;11.38;5.70;;;6.30;99.90;;;;;;5081652;28;20028;-66
2021/11/14 02:27:54;;;;;;;12.38;6.10;;;6.30;99.90;;;;;;5085522;28;20036;-65
2021/11/14 02:30:21;;;;;;;10.48;5.80;;;6.30;99.90;;;;;;5086201;28;20043;-65
2021/11/14 02:32:48;;;;;;;7.30;4.97;;;6.30;99.90;;;;;;5086195;28;20044;-65
2021/11/14 02:35:14;;;;;;;8.45;4.95;;;6.40;99.90;;;;;;5083322;28;20115;-66
2021/11/14 02:37:40;;;;;;;7.53;4.88;;;6.40;99.90;;;;;;5085035;28;20586;-66
2021/11/14 02:40:07;;;;;;;;;;;6.40;99.90;;;;;;5080425;28;20036;-65
2021/11/14 02:42:33;;;;;;;12.80;5.53;;;6.40;99.90;;;;;;5086938;28;19920;-64
2021/11/14 02:44:58;;;;;;;7.55;3.40;;;6.30;99.90;;;;;;5086927;28;20127;-65
2021/11/14 02:47:24;;;;;;;;;;;6.30;99.90;;;;;;5085382;28;20127;-65
2021/11/14 02:49:50;;;;;;;12.02;6.10;;;6.30;99.90;;;;;;5086188;28;20525;-65
2021/11/14 02:52:15;;;;;;;14.90;6.10;;;6.20;99.90;;;;;;5086521;28;20075;-65
2021/11/14 02:54:41;;;;;;;;;;;6.10;99.90;;;;;;5087346;28;20040;-65
2021/11/14 02:57:07;;;;;;;13.20;6.38;;;6.20;99.90;;;;;;5080246;28;19920;-65
2021/11/14 02:59:33;;;;;;;12.75;6.72;;;6.10;99.90;;;;;;5086576;28;20047;-65
2021/11/14 03:01:59;;;;;;;;;;;6.10;99.90;;;;;;5086282;28;20040;-65
2021/11/14 03:04:30;;;;;;;15.23;6.32;;;6.10;99.90;;;;;;5078629;28;19916;-65
2021/11/14 03:06:58;;;;;;;10.13;3.47;;;6.10;99.90;;;;;;5083326;28;20043;-65
2021/11/14 03:09:25;;;;;;;5.82;3.30;;;6.10;99.90;;;;;;5083192;28;20067;-65
2021/11/14 03:11:53;;;;;;;6.05;3.85;;;6.10;99.90;;;;;;5087054;28;20032;-65
2021/11/14 03:14:19;;;;;;;5.93;3.45;;;6.10;99.90;;;;;;5086605;28;20040;-65
2021/11/14 03:16:45;;;;;;;6.20;3.22;;;6.10;99.90;;;;;;5085269;28;20054;-65
2021/11/14 03:19:11;;;;;;;;;;;6.10;99.90;;;;;;5081961;28;20032;-65
2021/11/14 03:21:37;;;;;;;5.57;2.60;;;6.10;99.90;;;;;;5084035;28;20371;-66
2021/11/14 03:24:03;;;;;;;;;;;6.10;99.90;;;;;;5086952;28;20040;-65
2021/11/14 03:26:28;;;;;;;4.28;2.47;;;6.10;99.90;;;;;;5081209;28;20260;-66
2021/11/14 03:28:54;;;;;;;2.92;1.92;;;6.00;99.90;;;;;;5086464;28;20051;-65
2021/11/14 03:31:20;;;;;;;3.30;2.03;;;6.10;99.90;;;;;;5086003;28;20032;-65
2021/11/14 03:33:46;;;;;;;3.75;1.80;;;6.10;99.90;;;;;;5086390;28;20073;-65
2021/11/14 03:36:16;;;;;;;2.25;1.35;;;6.10;99.90;;;;;;5085307;28;20694;-66
2021/11/14 03:38:52;;;;;;;2.15;1.48;;;6.10;99.90;;;;;;5086152;28;20074;-66
2021/11/14 03:41:20;;;;;;;2.10;1.48;;;6.10;99.90;;;;;;5085908;28;20447;-63
2021/11/14 03:43:46;;;;;;;2.08;1.35;;;6.10;99.90;;;;;;5086174;28;20131;-63
2021/11/14 03:46:13;;;;;;;3.50;1.52;;;6.00;99.90;;;;;;5085014;28;20131;-63
2021/11/14 03:48:41;;;;;;;1.83;1.30;;;5.80;99.90;;;;;;5084803;28;20051;-63
2021/11/14 03:51:09;;;;;;;1.30;1.00;;;5.80;99.90;;;;;;5085371;28;20385;-63
2021/11/14 03:53:36;;;;;;;2.92;1.42;;;5.80;99.90;;;;;;5088806;28;20050;-63
2021/11/14 03:56:03;;;;;;;1.55;0.98;;;5.70;99.90;;;;;;5084032;28;20036;-64
2021/11/14 03:58:29;;;;;;;1.33;1.10;;;5.80;99.90;;;;;;5080270;28;20053;-63
2021/11/14 04:00:57;;;;;;;0.75;0.75;;;5.80;99.90;;;;;;5089164;28;20123;-63
2021/11/14 04:03:25;;;;;;;2.00;1.02;;;5.70;99.90;;;;;;5089076;28;20492;-63
2021/11/14 04:05:51;;;;;;;1.52;1.00;;;5.70;99.90;;;;;;5089340;28;20127;-63
2021/11/14 04:08:21;;;;;;;1.35;1.02;;;5.70;99.90;;;;;;5085300;28;20090;-63
2021/11/14 04:10:48;;;;;;;1.08;0.90;;;5.70;99.90;;;;;;5089700;28;20539;-63
2021/11/14 04:13:15;;;;;;;1.80;0.85;;;5.70;99.90;;;;;;5090027;28;20104;-63
2021/11/14 04:15:41;;;;;;;1.40;1.00;;;5.80;99.90;;;;;;5089296;28;20043;-63
2021/11/14 04:18:08;;;;;;;2.10;1.40;;;5.80;99.90;;;;;;5088812;28;20050;-63
2021/11/14 04:20:36;;;;;;;2.30;1.55;;;5.80;99.90;;;;;;5089603;28;20075;-63
2021/11/14 04:23:03;;;;;;;3.63;2.20;;;5.80;99.90;;;;;;5089818;28;20036;-64
2021/11/14 04:25:29;;;;;;;3.88;2.40;;;5.80;99.90;;;;;;5083837;28;20443;-63
2021/11/14 04:27:56;;;;;;;3.28;2.10;;;5.90;99.90;;;;;;5088140;28;20275;-63
2021/11/14 04:30:22;;;;;;;4.38;2.40;;;5.90;99.90;;;;;;5089740;28;20054;-64
2021/11/14 04:32:48;;;;;;;5.10;3.10;;;6.00;99.90;;;;;;5088978;28;20047;-63
2021/11/14 04:35:14;;;;;;;3.17;1.95;;;6.00;99.90;;;;;;5089432;28;20408;-63
2021/11/14 04:37:40;;;;;;;;;;;6.00;99.90;;;;;;5087959;28;20064;-63
2021/11/14 04:40:07;;;;;;;3.00;1.92;;;6.00;99.90;;;;;;5089222;28;20299;-63
2021/11/14 04:42:34;;;;;;;3.30;1.90;;;6.00;99.90;;;;;;5087714;28;20048;-63
2021/11/14 04:45:00;;;;;;;2.38;1.70;;;6.00;99.90;;;;;;5089445;28;20044;-63
2021/11/14 04:47:25;;;;;;;1.98;1.45;;;6.00;99.90;;;;;;5086274;28;20097;-63
2021/11/14 04:49:51;;;;;;;;;;;6.10;99.90;;;;;;5089291;28;20043;-63
2021/11/14 04:52:17;;;;;;;2.38;1.40;;;6.10;99.90;;;;;;5089075;28;20388;-63
2021/11/14 04:54:43;;;;;;;1.80;1.17;;;6.10;99.90;;;;;;5090309;28;20047;-63
2021/11/14 04:57:08;;;;;;;1.75;1.33;;;6.10;99.90;;;;;;5082758;28;20127;-65
2021/11/14 04:59:34;;;;;;;2.42;1.50;;;6.20;99.90;;;;;;5089226;28;20123;-63
2021/11/14 05:02:00;;;;;;;;;;;6.10;99.90;;;;;;5087470;28;20032;-62
2021/11/14 05:04:26;;;;;;;3.10;1.58;;;6.10;99.90;;;;;;5088811;28;19916;-62
2021/11/14 05:06:51;;;;;;;1.85;1.23;;;6.10;99.90;;;;;;5080886;28;20044;-63
2021/11/14 05:09:17;;;;;;;1.70;1.35;;;6.10;99.90;;;;;;5083326;28;20039;-63
2021/11/14 05:11:43;;;;;;;1.90;1.38;;;6.20;99.90;;;;;;5088525;28;20040;-62
2021/11/14 05:14:09;;;;;;;3.78;1.42;;;6.10;99.90;;;;;;5087454;28;20043;-63
2021/11/14 05:16:34;;;;;;;;;;;6.20;99.90;;;;;;5086224;28;20040;-63
2021/11/14 05:19:00;;;;;;;2.05;1.65;;;6.20;99.90;;;;;;5087836;28;19962;-63
2021/11/14 05:21:26;;;;;;;;;;;6.20;99.90;;;;;;5087202;28;20547;-64
2021/11/14 05:23:51;;;;;;;2.30;1.50;;;6.20;99.90;;;;;;5081990;28;19927;-63
2021/11/14 05:26:17;;;;;;;;;;;6.10;99.90;;;;;;5085406;28;20523;-63
2021/11/14 05:28:42;;;;;;;3.17;1.80;;;6.10;99.90;;;;;;5088061;28;19920;-63
2021/11/14 05:31:08;;;;;;;;;;;6.10;99.90;;;;;;5087286;28;20404;-63
2021/11/14 05:33:34;;;;;;;3.85;1.90;;;6.10;99.90;;;;;;5083482;28;19920;-63
2021/11/14 05:35:59;;;;;;;;;;;6.10;99.90;;;;;;5065806;28;20044;-63
2021/11/14 05:38:25;;;;;;;3.30;1.88;;;6.10;99.90;;;;;;5074481;28;19920;-62
2021/11/14 05:40:51;;;;;;;3.67;2.30;;;6.10;99.90;;;;;;5087642;28;20075;-63
2021/11/14 05:43:16;;;;;;;;;;;6.10;99.90;;;;;;5087539;28;20044;-62
2021/11/14 05:45:42;;;;;;;3.13;1.50;;;6.00;99.90;;;;;;5086593;28;19930;-63
2021/11/14 05:48:09;;;;;;;3.10;1.80;;;6.00;99.90;;;;;;5085770;28;20093;-64
2021/11/14 05:50:35;;;;;;;2.70;1.80;;;6.00;99.90;;;;;;5087222;28;20043;-63
2021/11/14 05:53:01;;;;;;;2.92;1.83;;;6.00;99.90;;;;;;5087213;28;20428;-63
2021/11/14 05:55:27;;;;;;;1.90;1.38;;;5.90;99.90;;;;;;5086996;28;20040;-63
2021/11/14 05:58:02;;;;;;;2.65;1.60;;;6.00;99.90;;;;;;5083225;28;20048;-61
2021/11/14 06:01:18;;;;;;;2.05;1.38;;;5.90;99.90;;;;;;5086563;28;20047;-63
2021/11/14 06:05:52;;;;;;;1.60;1.30;;;6.00;99.90;;;;;;5065793;28;20071;-63
2021/11/14 06:08:21;;;;;;;3.05;1.40;;;6.00;99.90;;;;;;5073112;28;20575;-63
2021/11/14 06:10:51;;;;;;;1.73;1.00;;;6.00;99.90;;;;;;5086180;28;20407;-63
2021/11/14 06:13:23;;;;;;;1.90;1.20;;;6.00;99.90;;;;;;5085738;28;20034;-63
2021/11/14 06:15:49;;;;;;;2.35;1.42;;;6.10;99.90;;;;;;5083792;28;20131;-63
2021/11/14 06:18:15;;;;;;;1.58;1.13;;;6.10;99.90;;;;;;5082542;28;20040;-65
2021/11/14 06:20:43;;;;;;;3.67;1.13;;;6.10;99.90;;;;;;5085954;28;20043;-64
2021/11/14 06:23:09;;;;;;;3.55;1.30;;;6.00;99.90;;;;;;5086831;28;20117;-64
2021/11/14 06:25:35;;;;;;;1.40;0.90;;;6.10;99.90;;;;;;5084568;28;20039;-63
2021/11/14 06:28:01;;;;;;;1.92;1.30;;;6.00;99.90;;;;;;5085101;28;20044;-63
2021/11/14 06:30:27;;;;;;;1.70;1.30;;;6.00;99.90;;;;;;5086350;28;20040;-64
2021/11/14 06:32:54;;;;;;;3.30;1.75;;;6.10;99.90;;;;;;5085850;28;20036;-64
2021/11/14 06:35:19;;;;;;;2.17;1.48;;;6.10;99.90;;;;;;5086133;28;20092;-63
2021/11/14 06:37:45;;;;;;;2.53;1.70;;;6.20;99.90;;;;;;5077100;28;20056;-63
2021/11/14 06:40:12;;;;;;;2.83;1.70;;;6.20;99.90;;;;;;5085878;28;20040;-64
2021/11/14 06:42:37;;;;;;;2.05;1.52;;;6.20;99.90;;;;;;5085864;28;20042;-64
2021/11/14 06:45:04;;;;;;;2.92;1.98;;;6.20;99.90;;;;;;5087144;28;20047;-64
2021/11/14 06:47:29;;;;;;;28.05;16.02;;;6.30;99.90;;;;;;5085365;28;20048;-64
2021/11/14 06:49:55;;;;;;;9.45;5.38;;;6.30;99.90;;;;;;5086171;28;20036;-64
2021/11/14 06:52:21;;;;;;;;;;;6.30;99.90;;;;;;5087281;28;20128;-63
2021/11/14 06:54:46;;;;;;;18.08;9.30;;;6.30;99.90;;;;;;5087212;28;19915;-63
2021/11/14 06:57:12;;;;;;;9.15;4.88;;;6.30;99.90;;;;;;5084814;28;20044;-63
2021/11/14 06:59:38;;;;;;;;;;;6.30;99.90;;;;;;5084403;28;20079;-67
2021/11/14 07:02:06;;;;;;;12.35;5.40;;;6.30;99.90;;;;;;5081929;28;19916;-65
2021/11/14 07:04:32;;;;;;;31.52;16.27;;;6.30;99.90;;;;;;5066971;28;20112;-65
2021/11/14 07:06:58;;;;;;;11.63;6.78;;;6.30;99.90;;;;;;5063782;28;20231;-65
2021/11/14 07:09:23;;;;;;;;;;;6.20;99.90;;;;;;5083397;28;20050;-63
2021/11/14 07:11:50;;;;;;;9.15;5.25;;;6.10;99.90;;;;;;5087115;28;19919;-63
2021/11/14 07:14:16;;;;;;;34.38;18.25;;;6.10;99.90;;;;;;5086586;28;20119;-62
2021/11/14 07:16:41;;;;;;;14.77;7.50;;;6.10;99.90;;;;;;5084974;28;20048;-63
2021/11/14 07:19:07;;;;;;;7.05;4.47;;;6.20;99.90;;;;;;5084874;28;20055;-64
2021/11/14 07:21:33;;;;;;;;;;;6.20;99.90;;;;;;5086696;28;20081;-63
2021/11/14 07:23:59;;;;;;;7.93;4.53;;;6.20;99.90;;;;;;5085993;28;19969;-64
2021/11/14 07:26:25;;;;;;;10.70;5.13;;;6.30;99.90;;;;;;5084574;28;20082;-63
2021/11/14 07:28:51;;;;;;;8.73;4.75;;;6.30;99.90;;;;;;5089235;28;21020;-64
2021/11/14 07:31:16;;;;;;;9.90;5.28;;;6.30;99.90;;;;;;5087434;28;20100;-66
2021/11/14 07:33:42;;;;;;;8.68;4.25;;;6.40;99.90;;;;;;5076432;28;20381;-64
2021/11/14 07:36:12;;;;;;;7.93;4.25;;;6.40;99.90;;;;;;5087227;28;20051;-63
2021/11/14 07:38:37;;;;;;;8.25;4.78;;;6.40;99.90;;;;;;5079445;28;20067;-66
2021/11/14 07:41:03;;;;;;;;;;;6.50;99.90;;;;;;5090823;28;20071;-66
2021/11/14 07:43:29;;;;;;;8.65;5.07;;;6.40;99.90;;;;;;5090110;28;19923;-64
2021/11/14 07:45:55;;;;;;;;;;;6.40;99.90;;;;;;5088985;28;20059;-64
2021/11/14 07:48:20;;;;;;;12.82;6.15;;;6.40;99.90;;;;;;5090258;28;20501;-65
2021/11/14 07:50:46;;;;;;;;;;;6.40;99.90;;;;;;5090858;28;20051;-65
2021/11/14 07:53:13;;;;;;;6.53;4.00;;;6.40;99.90;;;;;;5089878;28;20437;-64
2021/11/14 07:55:38;;;;;;;9.50;4.93;;;6.30;99.90;;;;;;5089693;28;20040;-64
2021/11/14 07:58:06;;;;;;;8.07;3.85;;;6.30;99.90;;;;;;5089676;28;20043;-63
2021/11/14 08:00:33;;;;;;;8.88;4.30;;;6.30;99.90;;;;;;5099367;28;20377;-64
2021/11/14 08:02:59;;;;;;;8.98;4.78;;;6.30;99.90;;;;;;5081120;28;20041;-63
2021/11/14 08:05:28;;;;;;;10.63;4.25;;;6.30;99.90;;;;;;5069367;28;20040;-64
2021/11/14 08:07:54;;;;;;;6.80;3.85;;;6.40;99.90;;;;;;5072651;28;20046;-63
2021/11/14 08:10:20;;;;;;;12.55;5.60;;;6.40;99.90;;;;;;5087593;28;20036;-64
2021/11/14 08:12:46;;;;;;;7.13;3.47;;;6.50;99.90;;;;;;5089152;28;20450;-63
2021/11/14 08:15:13;;;;;;;6.72;3.88;;;6.50;99.90;;;;;;5080846;28;20040;-64
2021/11/14 08:17:39;;;;;;;14.95;5.18;;;6.50;99.90;;;;;;5083548;28;20040;-64
2021/11/14 08:20:05;;;;;;;;;;;6.60;99.90;;;;;;5084296;28;20488;-63
2021/11/14 08:22:31;;;;;;;6.27;3.83;;;6.60;99.90;;;;;;5090284;28;19962;-64
2021/11/14 08:24:59;;;;;;;6.25;3.50;;;6.50;99.90;;;;;;5086270;28;20040;-64
2021/11/14 08:27:25;;;;;;;5.53;3.42;;;6.50;99.90;;;;;;5087800;28;20055;-64
2021/11/14 08:29:51;;;;;;;4.78;3.60;;;6.60;99.90;;;;;;5086692;28;20036;-64
2021/11/14 08:32:17;;;;;;;;;;;6.60;99.90;;;;;;5089773;28;20047;-64
2021/11/14 08:34:43;;;;;;;7.80;4.60;;;6.60;99.90;;;;;;5091225;28;19919;-65
2021/11/14 08:37:09;;;;;;;7.20;4.45;;;6.70;99.90;;;;;;5090000;28;20056;-64
2021/11/14 08:39:35;;;;;;;;;;;6.70;99.90;;;;;;5089585;28;20423;-64
2021/11/14 08:42:01;;;;;;;7.47;4.50;;;6.70;99.90;;;;;;5077033;28;19927;-71
2021/11/14 08:44:28;;;;;;;;;;;6.70;99.90;;;;;;5087889;28;20059;-65
2021/11/14 08:46:54;;;;;;;6.45;3.55;;;6.70;99.90;;;;;;5088369;28;20480;-65
2021/11/14 08:49:21;;;;;;;6.20;3.63;;;6.70;99.90;;;;;;5083704;28;20749;-64
2021/11/14 08:51:47;;;;;;;8.32;4.70;;;6.70;99.90;;;;;;5088047;28;20036;-63
2021/11/14 08:54:12;;;;;;;7.35;4.45;;;6.70;99.90;;;;;;5089313;28;20502;-63
2021/11/14 08:56:39;;;;;;;;;;;6.80;99.90;;;;;;5082139;28;20055;-64
2021/11/14 08:59:05;;;;;;;6.88;3.55;;;6.70;99.90;;;;;;5088572;28;19916;-64
2021/11/14 09:01:31;;;;;;;7.35;4.25;;;6.70;99.90;;;;;;5089106;28;20081;-64
2021/11/14 09:03:57;;;;;;;5.53;3.33;;;6.80;99.90;;;;;;5076609;28;20040;-64
2021/11/14 09:06:23;;;;;;;;;;;6.80;99.90;;;;;;5087459;28;20043;-64
2021/11/14 09:08:49;;;;;;;5.95;3.10;;;6.90;99.90;;;;;;5082239;28;20354;-64
2021/11/14 09:11:15;;;;;;;4.15;2.83;;;6.80;99.90;;;;;;5087103;28;20066;-64
2021/11/14 09:13:41;;;;;;;3.45;2.08;;;6.90;99.90;;;;;;5088194;28;20128;-64
2021/11/14 09:16:06;;;;;;;;;;;6.90;99.90;;;;;;5086810;28;20574;-64
2021/11/14 09:18:32;;;;;;;3.10;2.20;;;6.90;99.90;;;;;;5087394;28;19926;-65
2021/11/14 09:20:58;;;;;;;;;;;6.80;99.90;;;;;;5088261;28;20040;-64
2021/11/14 09:23:27;;;;;;;3.33;2.10;;;6.80;99.90;;;;;;5086767;28;19916;-64
2021/11/14 09:25:52;;;;;;;2.63;1.70;;;6.70;99.90;;;;;;5087936;28;20054;-64
2021/11/14 09:28:18;;;;;;;;;;;6.70;99.90;;;;;;5089889;28;20043;-64
2021/11/14 09:30:49;;;;;;;4.38;2.90;;;6.70;99.90;;;;;;5085368;28;19923;-64
2021/11/14 09:33:17;;;;;;;3.45;2.38;;;6.80;99.90;;;;;;5089288;28;20470;-64
2021/11/14 09:35:43;;;;;;;3.28;2.28;;;6.80;99.90;;;;;;5088294;28;20408;-63
2021/11/14 09:38:09;;;;;;;;;;;6.80;99.90;;;;;;5081662;28;20042;-64
2021/11/14 09:40:36;;;;;;;5.03;2.85;;;6.80;99.90;;;;;;5088491;28;19973;-64
2021/11/14 09:43:02;;;;;;;4.85;3.13;;;6.80;99.90;;;;;;5088998;28;20447;-64
2021/11/14 09:45:31;;;;;;;8.93;6.00;;;6.80;99.90;;;;;;5088251;28;20039;-64
2021/11/14 09:47:57;;;;;;;30.85;15.02;;;6.70;99.90;;;;;;5088142;28;20048;-64
2021/11/14 09:50:24;;;;;;;11.18;5.03;;;6.80;99.90;;;;;;5087754;28;20081;-64
2021/11/14 09:52:52;;;;;;;7.75;4.75;;;6.80;99.90;;;;;;5088118;28;20040;-64
2021/11/14 09:55:18;;;;;;;5.07;3.58;;;6.90;99.90;;;;;;5088797;28;20058;-64
2021/11/14 09:57:44;;;;;;;5.05;3.53;;;6.90;99.90;;;;;;5087607;28;20079;-65
2021/11/14 10:00:11;;;;;;;;;;;6.90;99.90;;;;;;5088537;28;20068;-64
2021/11/14 10:02:38;;;;;;;3.75;2.35;;;6.90;99.90;;;;;;5087460;28;20427;-64
2021/11/14 10:05:06;;;;;;;6.38;2.70;;;6.90;99.90;;;;;;5087971;28;20040;-64
2021/11/14 10:07:32;;;;;;;3.60;2.67;;;7.00;99.90;;;;;;5080428;28;20048;-64
2021/11/14 10:09:57;;;;;;;;;;;7.00;99.90;;;;;;5088680;28;20491;-65
2021/11/14 10:12:31;;;;;;;4.28;2.10;;;7.00;99.90;;;;;;5087618;28;19985;-65
2021/11/14 10:15:13;;;;;;;3.08;1.75;;;7.00;99.90;;;;;;5088485;28;20047;-65
2021/11/14 10:17:45;;;;;;;3.58;2.33;;;7.00;99.90;;;;;;5087078;28;20047;-64
2021/11/14 10:20:18;;;;;;;3.78;1.98;;;7.00;99.90;;;;;;5087512;28;20040;-64
2021/11/14 10:22:47;;;;;;;2.45;1.85;;;7.00;99.90;;;;;;5081193;28;20497;-64
2021/11/14 10:25:15;;;;;;;3.10;2.17;;;7.00;99.90;;;;;;5087689;28;20131;-64
2021/11/14 10:27:42;;;;;;;3.35;1.90;;;7.10;99.90;;;;;;5088058;28;20051;-64
2021/11/14 10:30:11;;;;;;;3.03;1.63;;;7.10;99.90;;;;;;5088060;28;20097;-64
2021/11/14 10:32:38;;;;;;;2.33;1.70;;;7.10;99.90;;;;;;5087933;28;20044;-64
2021/11/14 10:35:05;;;;;;;1.48;1.30;;;7.10;99.90;;;;;;5088221;28;20551;-63
2021/11/14 10:37:34;;;;;;;2.40;1.45;;;7.10;99.90;;;;;;5082355;28;20506;-64
2021/11/14 10:40:04;;;;;;;2.35;1.75;;;7.10;99.90;;;;;;5073399;28;20115;-64
2021/11/14 10:42:31;;;;;;;2.30;1.40;;;7.10;99.90;;;;;;5085315;28;20376;-64
2021/11/14 10:45:01;;;;;;;2.70;2.00;;;7.10;99.90;;;;;;5084173;28;20032;-64
2021/11/14 10:47:28;;;;;;;1.98;1.58;;;7.00;99.90;;;;;;5084673;28;20717;-64
2021/11/14 10:50:07;;;;;;;3.42;2.20;;;7.00;99.90;;;;;;5079408;28;20055;-65
2021/11/14 10:52:34;;;;;;;1.73;1.40;;;7.00;99.90;;;;;;5080428;28;20123;-66
2021/11/14 10:55:04;;;;;;;2.38;1.85;;;7.10;99.90;;;;;;5084344;28;20036;-66
2021/11/14 10:57:32;;;;;;;4.07;2.45;;;7.10;99.90;;;;;;5076020;28;20074;-63
2021/11/14 10:59:58;;;;;;;3.75;2.72;;;7.10;99.90;;;;;;5079318;28;20115;-63
2021/11/14 11:02:24;;;;;;;;;;;7.10;99.90;;;;;;5086912;28;20556;-62
2021/11/14 11:04:52;;;;;;;3.50;2.78;;;7.00;99.90;;;;;;5079091;28;19943;-63
2021/11/14 11:07:18;;;;;;;4.50;2.80;;;7.00;99.90;;;;;;5081362;28;20051;-64
2021/11/14 11:09:44;;;;;;;5.32;3.90;;;7.00;99.90;;;;;;5075913;28;20126;-62
2021/11/14 11:12:20;;;;;;;;;;;7.00;99.90;;;;;;5086009;28;20683;-64
2021/11/14 11:15:00;;;;;;;5.35;3.38;;;6.90;99.90;;;;;;5084609;28;20012;-63
2021/11/14 11:17:41;;;;;;;4.00;2.95;;;6.90;99.90;;;;;;5084838;28;20040;-63
2021/11/14 11:20:10;;;;;;;4.32;3.50;;;6.90;99.90;;;;;;5084212;28;20114;-63
2021/11/14 11:22:47;;;;;;;5.20;3.35;;;6.90;99.90;;;;;;5075536;28;20040;-63
2021/11/14 11:25:13;;;;;;;5.05;3.97;;;6.90;99.90;;;;;;5077811;28;20041;-62
2021/11/14 11:27:39;;;;;;;;;;;6.90;99.90;;;;;;5073742;28;20056;-63
2021/11/14 11:30:06;;;;;;;6.28;4.38;;;7.00;99.90;;;;;;5072196;28;19931;-63
2021/11/14 11:32:31;;;;;;;7.82;5.38;;;7.00;99.90;;;;;;5082248;28;20044;-63
2021/11/14 11:34:59;;;;;;;;;;;7.00;99.90;;;;;;5081019;28;20693;-63
2021/11/14 11:37:24;;;;;;;7.85;5.15;;;7.10;99.90;;;;;;5080064;28;19923;-63
2021/11/14 11:39:50;;;;;;;;;;;7.10;99.90;;;;;;5086580;28;20044;-63
2021/11/14 11:42:16;;;;;;;7.50;5.57;;;7.00;99.90;;;;;;5086142;28;20015;-63
2021/11/14 11:44:42;;;;;;;;;;;7.10;99.90;;;;;;5087876;28;20173;-62
2021/11/14 11:47:12;;;;;;;8.98;6.13;;;7.10;99.90;;;;;;5085296;28;19924;-63
2021/11/14 11:49:42;;;;;;;12.07;7.78;;;7.00;99.90;;;;;;5086498;28;20040;-62
2021/11/14 11:52:17;;;;;;;11.18;7.50;;;7.10;99.90;;;;;;5085638;28;20071;-63
2021/11/14 11:54:43;;;;;;;9.88;6.18;;;7.00;99.90;;;;;;5086440;28;20059;-63
2021/11/14 11:57:12;;;;;;;10.60;6.75;;;6.90;99.90;;;;;;5086094;28;20039;-63
2021/11/14 11:59:53;;;;;;;9.80;6.60;;;6.80;99.90;;;;;;5086099;28;20043;-63
2021/11/14 12:02:27;;;;;;;9.95;7.10;;;6.80;99.90;;;;;;5082319;28;20574;-62
2021/11/14 12:04:56;;;;;;;11.00;6.95;;;6.80;99.90;;;;;;5065828;28;20045;-62
2021/11/14 12:07:27;;;;;;;10.60;6.82;;;6.80;99.90;;;;;;5065091;28;20075;-63
2021/11/14 12:09:56;;;;;;;11.48;7.53;;;6.80;99.90;;;;;;5078768;28;20039;-63
2021/11/14 12:12:28;;;;;;;12.82;8.52;;;6.90;99.90;;;;;;5067081;28;20052;-63
2021/11/14 12:15:27;;;;;;;13.73;8.48;;;6.90;99.90;;;;;;5069015;28;20112;-63
2021/11/14 12:17:57;;;;;;;11.88;7.65;;;6.90;99.90;;;;;;5068635;28;20441;-62
2021/11/14 12:20:40;;;;;;;14.50;8.85;;;6.90;99.90;;;;;;5080559;28;20039;-62
2021/11/14 12:23:27;;;;;;;15.38;8.98;;;6.80;99.90;;;;;;5084423;28;20309;-62
2021/11/14 12:25:55;;;;;;;18.55;10.52;;;6.80;99.90;;;;;;5072961;28;20036;-63
2021/11/14 12:28:32;;;;;;;17.45;10.65;;;6.80;99.90;;;;;;5079091;28;20105;-63
2021/11/14 12:33:43;;;;;;;14.10;9.65;;;6.80;99.90;;;;;;5088948;28;20087;-63
2021/11/14 12:36:38;;;;;;;16.20;10.20;;;6.80;99.90;;;;;;5088097;28;20043;-63
2021/11/14 12:39:10;;;;;;;18.30;11.35;;;6.80;99.90;;;;;;5083532;28;20044;-64
2021/11/14 12:41:35;;;;;;;15.88;10.10;;;6.80;99.90;;;;;;5089316;28;20055;-63
2021/11/14 12:44:01;;;;;;;;;;;6.80;99.90;;;;;;5090103;28;20044;-63
2021/11/14 12:46:27;;;;;;;13.80;9.30;;;6.80;99.90;;;;;;5088750;28;19920;-64
2021/11/14 12:48:54;;;;;;;18.05;11.00;;;6.80;99.90;;;;;;5089374;28;20122;-63
2021/11/14 12:51:27;;;;;;;18.40;10.40;;;6.80;99.90;;;;;;5089968;28;20040;-63
2021/11/14 12:54:02;;;;;;;17.30;10.13;;;6.80;99.90;;;;;;5087463;28;20595;-63
2021/11/14 12:56:33;;;;;;;20.38;11.90;;;6.80;99.90;;;;;;5089089;28;20792;-63
2021/11/14 12:59:02;;;;;;;22.02;11.80;;;6.80;99.90;;;;;;5089379;28;20071;-63
2021/11/14 13:01:31;;;;;;;21.88;11.77;;;6.80;99.90;;;;;;5088553;28;20044;-63
2021/11/14 13:04:00;;;;;;;16.95;10.27;;;6.70;99.90;;;;;;5072358;28;20045;-63
2021/11/14 13:06:36;;;;;;;20.77;10.93;;;6.80;99.90;;;;;;5067146;28;20059;-63
2021/11/14 13:09:30;;;;;;;17.52;10.27;;;6.70;99.90;;;;;;5085384;28;20047;-63
2021/11/14 13:12:17;;;;;;;15.75;10.52;;;6.60;99.90;;;;;;5079288;28;20040;-64
2021/11/14 13:14:43;;;;;;;;;;;6.50;99.90;;;;;;5086156;28;20044;-63